METAR Data
IDs: Format: Raw Decoded Include TAF

Data at: 1906 UTC 12 Dec 2018

METAR for:KAOH (Lima/Allen Cnty, OH, US)
Text:KAOH 121853Z AUTO 20008KT 10SM OVC065 05/M02 A2986 RMK AO2 SLP121 T00501017
Temperature: 5.0°C ( 41°F)
Dewpoint: -1.7°C ( 29°F) [RH = 62%]
Pressure (altimeter):29.86 inches Hg (1011.3 mb) [Sea level pressure: 1012.1 mb]
Winds:from the SSW (200 degrees) at 9 MPH (8 knots; 4.1 m/s)
Visibility:10 or more sm (16+ km)
Ceiling:6500 feet AGL
Clouds: overcast cloud deck at 6500 feet AGL
QC Flag:automated observation with no human augmentation